sensor_id;sensor_type;location;lat;lon;timestamp;P1;durP1;ratioP1;P2;durP2;ratioP2
28629;SDS011;15817;42.130;24.762;2024-02-21T00:01:14;33.03;;;22.13;;
28629;SDS011;15817;42.130;24.762;2024-02-21T00:03:50;32.97;;;22.90;;
28629;SDS011;15817;42.130;24.762;2024-02-21T00:10:07;34.00;;;23.25;;
28629;SDS011;15817;42.130;24.762;2024-02-21T00:12:58;35.72;;;23.00;;
28629;SDS011;15817;42.130;24.762;2024-02-21T00:15:47;35.00;;;24.02;;
28629;SDS011;15817;42.130;24.762;2024-02-21T00:18:17;33.83;;;24.02;;
28629;SDS011;15817;42.130;24.762;2024-02-21T00:20:55;35.28;;;24.35;;
28629;SDS011;15817;42.130;24.762;2024-02-21T00:23:50;38.58;;;24.50;;
28629;SDS011;15817;42.130;24.762;2024-02-21T00:26:16;45.97;;;24.50;;
28629;SDS011;15817;42.130;24.762;2024-02-21T00:28:46;35.80;;;24.85;;
28629;SDS011;15817;42.130;24.762;2024-02-21T00:31:12;37.10;;;25.02;;
28629;SDS011;15817;42.130;24.762;2024-02-21T00:33:48;40.30;;;24.02;;
28629;SDS011;15817;42.130;24.762;2024-02-21T00:36:34;67.32;;;38.40;;
28629;SDS011;15817;42.130;24.762;2024-02-21T00:39:05;58.28;;;34.35;;
28629;SDS011;15817;42.130;24.762;2024-02-21T00:41:34;47.13;;;28.85;;
28629;SDS011;15817;42.130;24.762;2024-02-21T00:44:12;43.90;;;27.67;;
28629;SDS011;15817;42.130;24.762;2024-02-21T00:46:45;39.17;;;26.00;;
28629;SDS011;15817;42.130;24.762;2024-02-21T00:49:15;43.42;;;25.90;;
28629;SDS011;15817;42.130;24.762;2024-02-21T00:51:45;38.60;;;25.60;;
28629;SDS011;15817;42.130;24.762;2024-02-21T00:54:14;37.70;;;25.80;;
28629;SDS011;15817;42.130;24.762;2024-02-21T00:56:48;36.45;;;26.23;;
28629;SDS011;15817;42.130;24.762;2024-02-21T00:59:24;38.22;;;26.15;;
28629;SDS011;15817;42.130;24.762;2024-02-21T01:02:07;39.65;;;26.67;;
28629;SDS011;15817;42.130;24.762;2024-02-21T01:05:03;36.30;;;23.95;;
28629;SDS011;15817;42.130;24.762;2024-02-21T01:07:43;39.47;;;26.67;;
28629;SDS011;15817;42.130;24.762;2024-02-21T01:10:22;47.03;;;29.20;;
28629;SDS011;15817;42.130;24.762;2024-02-21T01:13:08;48.03;;;30.15;;
28629;SDS011;15817;42.130;24.762;2024-02-21T01:15:43;44.50;;;28.27;;
28629;SDS011;15817;42.130;24.762;2024-02-21T01:18:14;40.35;;;28.75;;
28629;SDS011;15817;42.130;24.762;2024-02-21T01:20:40;46.60;;;28.45;;
28629;SDS011;15817;42.130;24.762;2024-02-21T01:23:26;43.55;;;28.50;;
28629;SDS011;15817;42.130;24.762;2024-02-21T01:26:05;40.45;;;26.33;;
28629;SDS011;15817;42.130;24.762;2024-02-21T01:28:47;44.22;;;29.08;;
28629;SDS011;15817;42.130;24.762;2024-02-21T01:31:13;47.70;;;27.45;;
28629;SDS011;15817;42.130;24.762;2024-02-21T01:33:40;40.05;;;26.27;;
28629;SDS011;15817;42.130;24.762;2024-02-21T01:36:16;44.05;;;28.02;;
28629;SDS011;15817;42.130;24.762;2024-02-21T01:38:58;46.90;;;27.35;;
28629;SDS011;15817;42.130;24.762;2024-02-21T01:41:36;40.58;;;26.90;;
28629;SDS011;15817;42.130;24.762;2024-02-21T01:44:05;43.85;;;27.50;;
28629;SDS011;15817;42.130;24.762;2024-02-21T01:46:31;40.83;;;26.48;;
28629;SDS011;15817;42.130;24.762;2024-02-21T01:48:57;36.22;;;25.23;;
28629;SDS011;15817;42.130;24.762;2024-02-21T01:51:24;37.88;;;25.35;;
28629;SDS011;15817;42.130;24.762;2024-02-21T01:53:59;41.53;;;27.15;;
28629;SDS011;15817;42.130;24.762;2024-02-21T01:56:25;35.95;;;25.80;;
28629;SDS011;15817;42.130;24.762;2024-02-21T01:58:52;38.63;;;25.05;;
28629;SDS011;15817;42.130;24.762;2024-02-21T02:01:24;36.25;;;25.80;;
28629;SDS011;15817;42.130;24.762;2024-02-21T02:03:59;38.83;;;26.30;;
28629;SDS011;15817;42.130;24.762;2024-02-21T02:06:38;38.33;;;26.30;;
28629;SDS011;15817;42.130;24.762;2024-02-21T02:09:30;35.38;;;25.33;;
28629;SDS011;15817;42.130;24.762;2024-02-21T02:12:12;40.97;;;26.58;;
28629;SDS011;15817;42.130;24.762;2024-02-21T02:14:41;37.55;;;26.05;;
28629;SDS011;15817;42.130;24.762;2024-02-21T02:17:24;39.22;;;26.40;;
28629;SDS011;15817;42.130;24.762;2024-02-21T02:20:00;40.08;;;27.88;;
28629;SDS011;15817;42.130;24.762;2024-02-21T02:22:40;35.55;;;26.33;;
28629;SDS011;15817;42.130;24.762;2024-02-21T02:25:12;38.40;;;27.40;;
28629;SDS011;15817;42.130;24.762;2024-02-21T02:27:42;46.15;;;28.35;;
28629;SDS011;15817;42.130;24.762;2024-02-21T02:30:10;45.95;;;31.35;;
28629;SDS011;15817;42.130;24.762;2024-02-21T02:32:42;44.53;;;30.88;;
28629;SDS011;15817;42.130;24.762;2024-02-21T02:35:14;44.22;;;29.95;;
28629;SDS011;15817;42.130;24.762;2024-02-21T02:37:51;40.88;;;28.48;;
28629;SDS011;15817;42.130;24.762;2024-02-21T02:40:26;52.05;;;32.90;;
28629;SDS011;15817;42.130;24.762;2024-02-21T02:43:01;45.58;;;31.80;;
28629;SDS011;15817;42.130;24.762;2024-02-21T02:45:34;49.58;;;33.33;;
28629;SDS011;15817;42.130;24.762;2024-02-21T02:48:00;49.83;;;33.20;;
28629;SDS011;15817;42.130;24.762;2024-02-21T02:50:36;52.70;;;33.25;;
28629;SDS011;15817;42.130;24.762;2024-02-21T02:53:05;51.38;;;33.60;;
28629;SDS011;15817;42.130;24.762;2024-02-21T02:55:31;53.15;;;35.42;;
28629;SDS011;15817;42.130;24.762;2024-02-21T02:58:06;51.65;;;35.53;;
28629;SDS011;15817;42.130;24.762;2024-02-21T03:00:47;52.90;;;34.63;;
28629;SDS011;15817;42.130;24.762;2024-02-21T03:03:29;55.03;;;35.78;;
28629;SDS011;15817;42.130;24.762;2024-02-21T03:05:55;56.08;;;37.00;;
28629;SDS011;15817;42.130;24.762;2024-02-21T03:08:31;59.10;;;37.28;;
28629;SDS011;15817;42.130;24.762;2024-02-21T03:11:06;54.50;;;35.60;;
28629;SDS011;15817;42.130;24.762;2024-02-21T03:13:36;46.80;;;32.45;;
28629;SDS011;15817;42.130;24.762;2024-02-21T03:16:11;53.50;;;35.28;;
28629;SDS011;15817;42.130;24.762;2024-02-21T03:18:48;52.13;;;36.30;;
28629;SDS011;15817;42.130;24.762;2024-02-21T03:21:14;46.25;;;32.83;;
28629;SDS011;15817;42.130;24.762;2024-02-21T03:23:42;48.47;;;33.90;;
28629;SDS011;15817;42.130;24.762;2024-02-21T03:26:12;47.22;;;34.25;;
28629;SDS011;15817;42.130;24.762;2024-02-21T03:28:47;45.22;;;32.90;;
28629;SDS011;15817;42.130;24.762;2024-02-21T03:31:20;51.28;;;34.78;;
28629;SDS011;15817;42.130;24.762;2024-02-21T03:33:51;53.90;;;34.85;;
28629;SDS011;15817;42.130;24.762;2024-02-21T03:36:33;55.60;;;34.55;;
28629;SDS011;15817;42.130;24.762;2024-02-21T03:39:04;50.13;;;33.35;;
28629;SDS011;15817;42.130;24.762;2024-02-21T03:41:30;52.63;;;36.20;;
28629;SDS011;15817;42.130;24.762;2024-02-21T03:43:58;47.58;;;33.83;;
28629;SDS011;15817;42.130;24.762;2024-02-21T03:46:30;52.60;;;34.72;;
28629;SDS011;15817;42.130;24.762;2024-02-21T03:49:05;50.38;;;33.00;;
28629;SDS011;15817;42.130;24.762;2024-02-21T03:51:34;44.45;;;31.70;;
28629;SDS011;15817;42.130;24.762;2024-02-21T03:54:02;50.92;;;32.58;;
28629;SDS011;15817;42.130;24.762;2024-02-21T03:56:32;46.03;;;31.00;;
28629;SDS011;15817;42.130;24.762;2024-02-21T03:59:00;49.00;;;32.08;;
28629;SDS011;15817;42.130;24.762;2024-02-21T04:01:26;44.03;;;30.50;;
28629;SDS011;15817;42.130;24.762;2024-02-21T04:03:58;42.05;;;30.25;;
28629;SDS011;15817;42.130;24.762;2024-02-21T04:06:29;44.15;;;30.80;;
28629;SDS011;15817;42.130;24.762;2024-02-21T04:08:57;43.25;;;30.83;;
28629;SDS011;15817;42.130;24.762;2024-02-21T04:11:28;45.75;;;30.60;;
28629;SDS011;15817;42.130;24.762;2024-02-21T04:13:57;43.13;;;29.52;;
28629;SDS011;15817;42.130;24.762;2024-02-21T04:16:23;41.97;;;28.38;;
28629;SDS011;15817;42.130;24.762;2024-02-21T04:18:52;39.13;;;28.23;;
28629;SDS011;15817;42.130;24.762;2024-02-21T04:21:18;47.35;;;28.60;;
28629;SDS011;15817;42.130;24.762;2024-02-21T04:23:49;47.80;;;30.55;;
28629;SDS011;15817;42.130;24.762;2024-02-21T04:26:20;40.63;;;28.95;;
28629;SDS011;15817;42.130;24.762;2024-02-21T04:28:51;39.92;;;29.13;;
28629;SDS011;15817;42.130;24.762;2024-02-21T04:31:28;41.00;;;29.85;;
28629;SDS011;15817;42.130;24.762;2024-02-21T04:34:07;36.63;;;27.58;;
28629;SDS011;15817;42.130;24.762;2024-02-21T04:36:48;41.20;;;27.27;;
28629;SDS011;15817;42.130;24.762;2024-02-21T04:39:19;41.15;;;27.40;;
28629;SDS011;15817;42.130;24.762;2024-02-21T04:41:50;39.83;;;27.67;;
28629;SDS011;15817;42.130;24.762;2024-02-21T04:44:22;38.30;;;28.25;;
28629;SDS011;15817;42.130;24.762;2024-02-21T04:46:55;40.10;;;27.38;;
28629;SDS011;15817;42.130;24.762;2024-02-21T04:49:25;39.65;;;27.17;;
28629;SDS011;15817;42.130;24.762;2024-02-21T04:51:54;43.25;;;29.55;;
28629;SDS011;15817;42.130;24.762;2024-02-21T04:54:31;40.13;;;27.77;;
28629;SDS011;15817;42.130;24.762;2024-02-21T04:57:00;45.25;;;29.83;;
28629;SDS011;15817;42.130;24.762;2024-02-21T04:59:37;42.25;;;29.65;;
28629;SDS011;15817;42.130;24.762;2024-02-21T05:02:10;41.58;;;29.55;;
28629;SDS011;15817;42.130;24.762;2024-02-21T05:05:01;41.25;;;28.67;;
28629;SDS011;15817;42.130;24.762;2024-02-21T05:07:48;43.78;;;30.40;;
28629;SDS011;15817;42.130;24.762;2024-02-21T05:10:16;43.40;;;28.67;;
28629;SDS011;15817;42.130;24.762;2024-02-21T05:12:52;41.75;;;28.63;;
28629;SDS011;15817;42.130;24.762;2024-02-21T05:15:23;40.67;;;27.83;;
28629;SDS011;15817;42.130;24.762;2024-02-21T05:18:20;39.92;;;28.10;;
28629;SDS011;15817;42.130;24.762;2024-02-21T05:21:04;45.17;;;30.23;;
28629;SDS011;15817;42.130;24.762;2024-02-21T05:24:06;43.72;;;29.23;;
28629;SDS011;15817;42.130;24.762;2024-02-21T05:26:54;43.25;;;28.05;;
28629;SDS011;15817;42.130;24.762;2024-02-21T05:29:26;41.33;;;28.15;;
28629;SDS011;15817;42.130;24.762;2024-02-21T05:31:58;43.30;;;28.52;;
28629;SDS011;15817;42.130;24.762;2024-02-21T05:34:52;40.53;;;28.27;;
28629;SDS011;15817;42.130;24.762;2024-02-21T05:37:33;41.05;;;29.38;;
28629;SDS011;15817;42.130;24.762;2024-02-21T05:40:21;39.95;;;27.50;;
28629;SDS011;15817;42.130;24.762;2024-02-21T05:43:00;43.00;;;28.80;;
28629;SDS011;15817;42.130;24.762;2024-02-21T05:45:49;42.88;;;28.63;;
28629;SDS011;15817;42.130;24.762;2024-02-21T05:48:27;42.38;;;29.80;;
28629;SDS011;15817;42.130;24.762;2024-02-21T05:51:38;44.00;;;29.70;;
28629;SDS011;15817;42.130;24.762;2024-02-21T05:54:07;42.50;;;28.75;;
28629;SDS011;15817;42.130;24.762;2024-02-21T05:57:05;44.58;;;29.63;;
28629;SDS011;15817;42.130;24.762;2024-02-21T05:59:33;38.65;;;28.30;;
28629;SDS011;15817;42.130;24.762;2024-02-21T06:02:07;41.95;;;28.90;;
28629;SDS011;15817;42.130;24.762;2024-02-21T06:04:57;43.95;;;29.98;;
28629;SDS011;15817;42.130;24.762;2024-02-21T06:07:26;41.30;;;28.88;;
28629;SDS011;15817;42.130;24.762;2024-02-21T06:09:57;45.15;;;29.77;;
28629;SDS011;15817;42.130;24.762;2024-02-21T06:12:32;45.20;;;30.63;;
28629;SDS011;15817;42.130;24.762;2024-02-21T06:15:00;41.15;;;29.90;;
28629;SDS011;15817;42.130;24.762;2024-02-21T06:17:38;46.72;;;32.03;;
28629;SDS011;15817;42.130;24.762;2024-02-21T06:20:34;41.70;;;29.85;;
28629;SDS011;15817;42.130;24.762;2024-02-21T06:23:08;45.55;;;31.20;;
28629;SDS011;15817;42.130;24.762;2024-02-21T06:25:46;45.97;;;32.63;;
28629;SDS011;15817;42.130;24.762;2024-02-21T06:28:31;43.40;;;31.88;;
28629;SDS011;15817;42.130;24.762;2024-02-21T06:31:06;41.60;;;29.30;;
28629;SDS011;15817;42.130;24.762;2024-02-21T06:41:02;47.50;;;31.48;;
28629;SDS011;15817;42.130;24.762;2024-02-21T06:52:05;41.38;;;29.73;;
28629;SDS011;15817;42.130;24.762;2024-02-21T07:18:37;47.65;;;26.98;;
28629;SDS011;15817;42.130;24.762;2024-02-21T07:21:15;47.33;;;26.75;;
28629;SDS011;15817;42.130;24.762;2024-02-21T07:23:50;40.70;;;23.73;;
28629;SDS011;15817;42.130;24.762;2024-02-21T07:26:48;32.53;;;20.65;;
28629;SDS011;15817;42.130;24.762;2024-02-21T07:29:51;36.83;;;20.25;;
28629;SDS011;15817;42.130;24.762;2024-02-21T07:32:49;28.85;;;17.02;;
28629;SDS011;15817;42.130;24.762;2024-02-21T07:36:40;30.33;;;15.05;;
28629;SDS011;15817;42.130;24.762;2024-02-21T07:39:56;29.50;;;15.90;;
28629;SDS011;15817;42.130;24.762;2024-02-21T07:43:46;32.83;;;14.93;;
28629;SDS011;15817;42.130;24.762;2024-02-21T07:46:29;26.67;;;13.57;;
28629;SDS011;15817;42.130;24.762;2024-02-21T07:49:22;23.25;;;13.52;;
28629;SDS011;15817;42.130;24.762;2024-02-21T07:52:51;18.65;;;12.40;;
28629;SDS011;15817;42.130;24.762;2024-02-21T08:18:28;14.45;;;10.90;;
28629;SDS011;15817;42.130;24.762;2024-02-21T08:25:09;23.75;;;14.45;;
28629;SDS011;15817;42.130;24.762;2024-02-21T08:58:30;13.23;;;7.78;;
28629;SDS011;15817;42.130;24.762;2024-02-21T09:01:38;13.32;;;8.70;;
28629;SDS011;15817;42.130;24.762;2024-02-21T09:12:50;12.57;;;9.77;;
28629;SDS011;15817;42.130;24.762;2024-02-21T09:15:48;15.75;;;9.63;;
28629;SDS011;15817;42.130;24.762;2024-02-21T09:19:10;17.17;;;10.23;;
28629;SDS011;15817;42.130;24.762;2024-02-21T09:23:08;12.30;;;9.80;;
28629;SDS011;15817;42.130;24.762;2024-02-21T09:25:56;17.00;;;9.30;;
28629;SDS011;15817;42.130;24.762;2024-02-21T09:29:08;21.60;;;10.18;;
28629;SDS011;15817;42.130;24.762;2024-02-21T09:36:11;15.07;;;10.27;;
28629;SDS011;15817;42.130;24.762;2024-02-21T09:42:46;12.75;;;9.35;;
28629;SDS011;15817;42.130;24.762;2024-02-21T09:45:23;12.82;;;10.23;;
28629;SDS011;15817;42.130;24.762;2024-02-21T09:51:07;8.18;;;6.95;;
28629;SDS011;15817;42.130;24.762;2024-02-21T09:53:41;12.55;;;7.10;;
28629;SDS011;15817;42.130;24.762;2024-02-21T09:56:44;12.48;;;6.88;;
28629;SDS011;15817;42.130;24.762;2024-02-21T10:01:10;8.20;;;6.88;;
28629;SDS011;15817;42.130;24.762;2024-02-21T10:07:18;10.00;;;6.45;;
28629;SDS011;15817;42.130;24.762;2024-02-21T10:10:29;8.48;;;6.53;;
28629;SDS011;15817;42.130;24.762;2024-02-21T10:13:26;8.38;;;7.20;;
28629;SDS011;15817;42.130;24.762;2024-02-21T10:20:20;8.88;;;6.43;;
28629;SDS011;15817;42.130;24.762;2024-02-21T10:23:15;10.68;;;6.78;;
28629;SDS011;15817;42.130;24.762;2024-02-21T10:26:19;12.18;;;6.82;;
28629;SDS011;15817;42.130;24.762;2024-02-21T10:36:48;7.18;;;5.82;;
28629;SDS011;15817;42.130;24.762;2024-02-21T10:39:38;8.68;;;5.20;;
28629;SDS011;15817;42.130;24.762;2024-02-21T10:42:44;5.43;;;4.70;;
28629;SDS011;15817;42.130;24.762;2024-02-21T12:05:00;5.20;;;4.20;;
28629;SDS011;15817;42.130;24.762;2024-02-21T12:12:19;8.43;;;4.10;;
28629;SDS011;15817;42.130;24.762;2024-02-21T12:18:15;5.38;;;4.15;;
28629;SDS011;15817;42.130;24.762;2024-02-21T12:21:04;8.73;;;3.60;;
28629;SDS011;15817;42.130;24.762;2024-02-21T12:23:48;4.00;;;3.50;;
28629;SDS011;15817;42.130;24.762;2024-02-21T12:26:43;7.97;;;3.70;;
28629;SDS011;15817;42.130;24.762;2024-02-21T12:30:03;5.63;;;4.30;;
28629;SDS011;15817;42.130;24.762;2024-02-21T12:32:38;8.40;;;4.03;;
28629;SDS011;15817;42.130;24.762;2024-02-21T12:35:38;6.63;;;3.90;;
28629;SDS011;15817;42.130;24.762;2024-02-21T12:38:23;5.65;;;3.60;;
28629;SDS011;15817;42.130;24.762;2024-02-21T12:41:19;4.97;;;3.35;;
28629;SDS011;15817;42.130;24.762;2024-02-21T12:47:39;7.70;;;3.60;;
28629;SDS011;15817;42.130;24.762;2024-02-21T12:50:13;4.75;;;3.75;;
28629;SDS011;15817;42.130;24.762;2024-02-21T12:53:05;6.30;;;3.50;;
28629;SDS011;15817;42.130;24.762;2024-02-21T12:56:01;4.25;;;3.65;;
28629;SDS011;15817;42.130;24.762;2024-02-21T12:59:11;4.95;;;3.38;;
28629;SDS011;15817;42.130;24.762;2024-02-21T13:02:00;3.25;;;2.83;;
28629;SDS011;15817;42.130;24.762;2024-02-21T13:04:45;3.50;;;3.20;;
28629;SDS011;15817;42.130;24.762;2024-02-21T13:07:35;3.03;;;2.70;;
28629;SDS011;15817;42.130;24.762;2024-02-21T13:10:06;7.57;;;3.28;;
28629;SDS011;15817;42.130;24.762;2024-02-21T13:13:05;4.50;;;2.47;;
28629;SDS011;15817;42.130;24.762;2024-02-21T13:18:47;2.97;;;2.65;;
28629;SDS011;15817;42.130;24.762;2024-02-21T13:22:01;3.42;;;3.03;;
28629;SDS011;15817;42.130;24.762;2024-02-21T13:24:49;4.35;;;3.25;;
28629;SDS011;15817;42.130;24.762;2024-02-21T13:28:02;3.78;;;3.00;;
28629;SDS011;15817;42.130;24.762;2024-02-21T13:30:43;2.92;;;2.55;;
28629;SDS011;15817;42.130;24.762;2024-02-21T13:33:09;3.03;;;2.45;;
28629;SDS011;15817;42.130;24.762;2024-02-21T13:35:45;11.15;;;3.00;;
28629;SDS011;15817;42.130;24.762;2024-02-21T13:38:22;6.32;;;2.60;;
28629;SDS011;15817;42.130;24.762;2024-02-21T13:41:13;6.18;;;2.95;;
28629;SDS011;15817;42.130;24.762;2024-02-21T13:43:58;9.38;;;2.88;;
28629;SDS011;15817;42.130;24.762;2024-02-21T13:46:42;5.15;;;2.92;;
28629;SDS011;15817;42.130;24.762;2024-02-21T13:49:27;3.25;;;2.47;;
28629;SDS011;15817;42.130;24.762;2024-02-21T13:52:23;5.18;;;2.65;;
28629;SDS011;15817;42.130;24.762;2024-02-21T13:54:51;3.13;;;2.58;;
28629;SDS011;15817;42.130;24.762;2024-02-21T14:02:19;10.68;;;3.35;;
28629;SDS011;15817;42.130;24.762;2024-02-21T14:05:03;3.05;;;2.63;;
28629;SDS011;15817;42.130;24.762;2024-02-21T14:07:41;6.07;;;2.70;;
28629;SDS011;15817;42.130;24.762;2024-02-21T14:10:23;4.43;;;2.75;;
28629;SDS011;15817;42.130;24.762;2024-02-21T14:16:00;4.78;;;2.60;;
28629;SDS011;15817;42.130;24.762;2024-02-21T14:18:54;6.50;;;2.47;;
28629;SDS011;15817;42.130;24.762;2024-02-21T14:21:52;4.50;;;2.30;;
28629;SDS011;15817;42.130;24.762;2024-02-21T14:24:20;3.22;;;2.50;;
28629;SDS011;15817;42.130;24.762;2024-02-21T14:27:17;4.60;;;3.20;;
28629;SDS011;15817;42.130;24.762;2024-02-21T14:30:31;3.58;;;2.60;;
28629;SDS011;15817;42.130;24.762;2024-02-21T14:33:07;5.18;;;3.67;;
28629;SDS011;15817;42.130;24.762;2024-02-21T14:35:57;5.50;;;4.18;;
28629;SDS011;15817;42.130;24.762;2024-02-21T14:39:00;10.80;;;4.13;;
28629;SDS011;15817;42.130;24.762;2024-02-21T14:41:40;8.60;;;4.00;;
28629;SDS011;15817;42.130;24.762;2024-02-21T14:44:08;4.82;;;3.95;;
28629;SDS011;15817;42.130;24.762;2024-02-21T14:49:43;6.93;;;4.30;;
28629;SDS011;15817;42.130;24.762;2024-02-21T14:52:15;6.32;;;4.90;;
28629;SDS011;15817;42.130;24.762;2024-02-21T14:55:12;9.07;;;4.97;;
28629;SDS011;15817;42.130;24.762;2024-02-21T14:58:07;9.18;;;6.03;;
28629;SDS011;15817;42.130;24.762;2024-02-21T15:00:48;9.80;;;5.05;;
28629;SDS011;15817;42.130;24.762;2024-02-21T15:03:26;7.20;;;5.10;;
28629;SDS011;15817;42.130;24.762;2024-02-21T15:05:56;6.90;;;5.10;;
28629;SDS011;15817;42.130;24.762;2024-02-21T15:08:26;6.70;;;5.13;;
28629;SDS011;15817;42.130;24.762;2024-02-21T15:11:00;7.63;;;5.03;;
28629;SDS011;15817;42.130;24.762;2024-02-21T15:14:10;7.38;;;4.93;;
28629;SDS011;15817;42.130;24.762;2024-02-21T15:17:29;10.98;;;5.95;;
28629;SDS011;15817;42.130;24.762;2024-02-21T15:20:20;10.27;;;6.47;;
28629;SDS011;15817;42.130;24.762;2024-02-21T15:30:56;6.03;;;5.22;;
28629;SDS011;15817;42.130;24.762;2024-02-21T15:34:20;6.28;;;4.65;;
28629;SDS011;15817;42.130;24.762;2024-02-21T16:24:08;7.38;;;4.63;;
28629;SDS011;15817;42.130;24.762;2024-02-21T16:30:59;9.93;;;5.30;;
28629;SDS011;15817;42.130;24.762;2024-02-21T18:32:01;7.64;;;5.12;;
28629;SDS011;15817;42.130;24.762;2024-02-21T18:38:21;11.93;;;7.60;;
28629;SDS011;15817;42.130;24.762;2024-02-21T18:47:43;9.00;;;6.00;;
28629;SDS011;15817;42.130;24.762;2024-02-21T18:54:09;9.05;;;6.30;;
28629;SDS011;15817;42.130;24.762;2024-02-21T19:01:24;13.10;;;6.68;;
28629;SDS011;15817;42.130;24.762;2024-02-21T19:04:13;10.25;;;7.55;;
28629;SDS011;15817;42.130;24.762;2024-02-21T19:07:38;11.52;;;6.80;;
28629;SDS011;15817;42.130;24.762;2024-02-21T19:10:27;11.93;;;6.35;;
28629;SDS011;15817;42.130;24.762;2024-02-21T19:13:09;8.85;;;6.60;;
28629;SDS011;15817;42.130;24.762;2024-02-21T19:15:38;9.00;;;5.93;;
28629;SDS011;15817;42.130;24.762;2024-02-21T19:18:28;8.30;;;6.30;;
28629;SDS011;15817;42.130;24.762;2024-02-21T19:21:06;9.50;;;6.32;;
28629;SDS011;15817;42.130;24.762;2024-02-21T19:24:04;11.43;;;6.88;;
28629;SDS011;15817;42.130;24.762;2024-02-21T19:32:50;15.63;;;9.32;;
28629;SDS011;15817;42.130;24.762;2024-02-21T19:35:29;11.95;;;9.13;;
28629;SDS011;15817;42.130;24.762;2024-02-21T19:38:11;12.00;;;8.25;;
28629;SDS011;15817;42.130;24.762;2024-02-21T19:41:26;14.00;;;9.55;;
28629;SDS011;15817;42.130;24.762;2024-02-21T19:44:02;13.73;;;9.70;;
28629;SDS011;15817;42.130;24.762;2024-02-21T19:46:40;13.15;;;9.27;;
28629;SDS011;15817;42.130;24.762;2024-02-21T19:49:42;10.80;;;8.43;;
28629;SDS011;15817;42.130;24.762;2024-02-21T19:52:57;11.88;;;9.00;;
28629;SDS011;15817;42.130;24.762;2024-02-21T19:56:10;11.52;;;8.65;;
28629;SDS011;15817;42.130;24.762;2024-02-21T19:59:28;13.15;;;8.50;;
28629;SDS011;15817;42.130;24.762;2024-02-21T20:09:43;12.07;;;8.95;;
28629;SDS011;15817;42.130;24.762;2024-02-21T20:16:18;11.20;;;8.57;;
28629;SDS011;15817;42.130;24.762;2024-02-21T20:19:33;9.70;;;8.18;;
28629;SDS011;15817;42.130;24.762;2024-02-21T20:23:07;10.52;;;8.63;;
28629;SDS011;15817;42.130;24.762;2024-02-21T20:41:56;10.88;;;8.55;;
28629;SDS011;15817;42.130;24.762;2024-02-21T20:44:38;9.93;;;8.82;;
28629;SDS011;15817;42.130;24.762;2024-02-21T20:47:41;13.02;;;9.82;;
28629;SDS011;15817;42.130;24.762;2024-02-21T20:55:11;11.85;;;9.05;;
28629;SDS011;15817;42.130;24.762;2024-02-21T21:02:19;13.82;;;10.00;;
28629;SDS011;15817;42.130;24.762;2024-02-21T21:09:12;18.42;;;12.95;;
28629;SDS011;15817;42.130;24.762;2024-02-21T21:12:07;13.27;;;10.20;;
28629;SDS011;15817;42.130;24.762;2024-02-21T21:15:44;13.50;;;10.52;;
28629;SDS011;15817;42.130;24.762;2024-02-21T21:21:44;12.05;;;9.68;;
28629;SDS011;15817;42.130;24.762;2024-02-21T21:24:25;10.82;;;8.82;;
28629;SDS011;15817;42.130;24.762;2024-02-21T21:31:38;8.05;;;6.70;;
28629;SDS011;15817;42.130;24.762;2024-02-21T21:34:40;7.40;;;6.47;;
28629;SDS011;15817;42.130;24.762;2024-02-21T21:37:35;7.45;;;6.55;;
28629;SDS011;15817;42.130;24.762;2024-02-21T21:40:37;7.95;;;6.40;;
28629;SDS011;15817;42.130;24.762;2024-02-21T21:43:28;8.43;;;6.15;;
28629;SDS011;15817;42.130;24.762;2024-02-21T21:46:12;7.25;;;6.35;;
28629;SDS011;15817;42.130;24.762;2024-02-21T21:48:58;7.55;;;5.70;;
28629;SDS011;15817;42.130;24.762;2024-02-21T22:03:33;9.20;;;6.70;;
28629;SDS011;15817;42.130;24.762;2024-02-21T22:09:45;13.40;;;7.43;;
28629;SDS011;15817;42.130;24.762;2024-02-21T22:12:16;15.80;;;8.52;;
28629;SDS011;15817;42.130;24.762;2024-02-21T22:15:20;10.07;;;7.45;;
28629;SDS011;15817;42.130;24.762;2024-02-21T22:18:06;11.18;;;7.25;;
28629;SDS011;15817;42.130;24.762;2024-02-21T22:20:38;10.27;;;7.72;;
28629;SDS011;15817;42.130;24.762;2024-02-21T22:23:15;10.23;;;6.90;;
28629;SDS011;15817;42.130;24.762;2024-02-21T22:26:04;19.17;;;6.90;;
28629;SDS011;15817;42.130;24.762;2024-02-21T22:28:57;10.70;;;6.93;;
28629;SDS011;15817;42.130;24.762;2024-02-21T22:31:33;13.15;;;7.80;;
28629;SDS011;15817;42.130;24.762;2024-02-21T22:41:05;9.50;;;6.93;;
28629;SDS011;15817;42.130;24.762;2024-02-21T22:44:16;12.82;;;7.53;;
28629;SDS011;15817;42.130;24.762;2024-02-21T22:50:25;9.32;;;7.57;;
28629;SDS011;15817;42.130;24.762;2024-02-21T22:53:34;16.45;;;7.68;;
28629;SDS011;15817;42.130;24.762;2024-02-21T23:00:08;14.50;;;6.53;;
28629;SDS011;15817;42.130;24.762;2024-02-21T23:03:22;12.82;;;7.68;;
28629;SDS011;15817;42.130;24.762;2024-02-21T23:06:32;7.22;;;6.28;;
28629;SDS011;15817;42.130;24.762;2024-02-21T23:10:09;7.50;;;6.45;;
28629;SDS011;15817;42.130;24.762;2024-02-21T23:12:59;7.90;;;6.50;;
28629;SDS011;15817;42.130;24.762;2024-02-21T23:15:42;7.38;;;6.38;;
28629;SDS011;15817;42.130;24.762;2024-02-21T23:18:31;10.15;;;6.80;;
28629;SDS011;15817;42.130;24.762;2024-02-21T23:21:15;12.10;;;6.35;;
28629;SDS011;15817;42.130;24.762;2024-02-21T23:24:33;6.90;;;6.20;;
28629;SDS011;15817;42.130;24.762;2024-02-21T23:28:02;12.10;;;6.13;;
28629;SDS011;15817;42.130;24.762;2024-02-21T23:31:22;7.57;;;6.30;;
28629;SDS011;15817;42.130;24.762;2024-02-21T23:34:19;10.65;;;6.07;;
28629;SDS011;15817;42.130;24.762;2024-02-21T23:37:00;8.30;;;6.18;;
28629;SDS011;15817;42.130;24.762;2024-02-21T23:40:19;7.18;;;6.32;;
28629;SDS011;15817;42.130;24.762;2024-02-21T23:43:24;7.28;;;5.35;;
28629;SDS011;15817;42.130;24.762;2024-02-21T23:46:23;7.10;;;5.00;;
28629;SDS011;15817;42.130;24.762;2024-02-21T23:55:14;6.60;;;4.50;;
28629;SDS011;15817;42.130;24.762;2024-02-21T23:58:22;7.95;;;4.57;;
